sensor_id;sensor_type;location;lat;lon;timestamp;P1;durP1;ratioP1;P2;durP2;ratioP2
47433;SDS011;33184;48.774;8.918;2022-12-07T00:04:55;11.53;;;8.00;;
47433;SDS011;33184;48.774;8.918;2022-12-07T00:10:15;10.27;;;6.67;;
47433;SDS011;33184;48.774;8.918;2022-12-07T00:15:36;11.87;;;7.70;;
47433;SDS011;33184;48.774;8.918;2022-12-07T00:21:16;9.73;;;7.53;;
47433;SDS011;33184;48.774;8.918;2022-12-07T00:26:38;12.47;;;8.17;;
47433;SDS011;33184;48.774;8.918;2022-12-07T00:32:00;12.13;;;8.37;;
47433;SDS011;33184;48.774;8.918;2022-12-07T00:37:20;8.57;;;6.10;;
47433;SDS011;33184;48.774;8.918;2022-12-07T00:42:41;9.53;;;7.13;;
47433;SDS011;33184;48.774;8.918;2022-12-07T00:48:01;11.13;;;7.13;;
47433;SDS011;33184;48.774;8.918;2022-12-07T00:53:22;11.73;;;7.20;;
47433;SDS011;33184;48.774;8.918;2022-12-07T00:58:43;9.43;;;6.67;;
47433;SDS011;33184;48.774;8.918;2022-12-07T01:04:04;10.80;;;8.10;;
47433;SDS011;33184;48.774;8.918;2022-12-07T01:09:25;10.17;;;7.17;;
47433;SDS011;33184;48.774;8.918;2022-12-07T01:14:46;10.13;;;7.17;;
47433;SDS011;33184;48.774;8.918;2022-12-07T01:20:06;11.00;;;7.20;;
47433;SDS011;33184;48.774;8.918;2022-12-07T01:25:27;13.73;;;6.90;;
47433;SDS011;33184;48.774;8.918;2022-12-07T01:31:01;10.67;;;7.23;;
47433;SDS011;33184;48.774;8.918;2022-12-07T01:36:25;9.87;;;7.20;;
47433;SDS011;33184;48.774;8.918;2022-12-07T01:41:47;9.63;;;7.00;;
47433;SDS011;33184;48.774;8.918;2022-12-07T01:47:07;10.00;;;7.67;;
47433;SDS011;33184;48.774;8.918;2022-12-07T01:52:30;8.90;;;6.57;;
47433;SDS011;33184;48.774;8.918;2022-12-07T01:57:53;9.45;;;6.22;;
47433;SDS011;33184;48.774;8.918;2022-12-07T02:03:19;11.20;;;7.23;;
47433;SDS011;33184;48.774;8.918;2022-12-07T02:08:54;8.80;;;6.00;;
47433;SDS011;33184;48.774;8.918;2022-12-07T02:14:14;7.93;;;5.77;;
47433;SDS011;33184;48.774;8.918;2022-12-07T02:31:10;11.13;;;7.53;;
47433;SDS011;33184;48.774;8.918;2022-12-07T02:36:39;10.27;;;7.03;;
47433;SDS011;33184;48.774;8.918;2022-12-07T02:42:07;12.77;;;8.50;;
47433;SDS011;33184;48.774;8.918;2022-12-07T02:47:34;10.77;;;7.20;;
47433;SDS011;33184;48.774;8.918;2022-12-07T02:52:56;12.07;;;8.10;;
47433;SDS011;33184;48.774;8.918;2022-12-07T02:58:30;9.80;;;6.40;;
47433;SDS011;33184;48.774;8.918;2022-12-07T03:10:17;8.93;;;6.70;;
47433;SDS011;33184;48.774;8.918;2022-12-07T03:15:46;9.47;;;6.63;;
47433;SDS011;33184;48.774;8.918;2022-12-07T03:21:10;9.73;;;7.17;;
47433;SDS011;33184;48.774;8.918;2022-12-07T03:26:34;11.23;;;6.68;;
47433;SDS011;33184;48.774;8.918;2022-12-07T03:43:08;10.07;;;6.78;;
47433;SDS011;33184;48.774;8.918;2022-12-07T03:48:35;9.67;;;6.83;;
47433;SDS011;33184;48.774;8.918;2022-12-07T03:54:05;10.30;;;7.07;;
47433;SDS011;33184;48.774;8.918;2022-12-07T03:59:31;10.73;;;7.20;;
47433;SDS011;33184;48.774;8.918;2022-12-07T04:04:52;11.93;;;7.63;;
47433;SDS011;33184;48.774;8.918;2022-12-07T04:10:13;9.13;;;6.13;;
47433;SDS011;33184;48.774;8.918;2022-12-07T04:15:33;9.73;;;7.07;;
47433;SDS011;33184;48.774;8.918;2022-12-07T04:20:54;11.37;;;7.37;;
47433;SDS011;33184;48.774;8.918;2022-12-07T04:26:14;10.97;;;6.60;;
47433;SDS011;33184;48.774;8.918;2022-12-07T04:31:35;11.53;;;6.43;;
47433;SDS011;33184;48.774;8.918;2022-12-07T04:36:56;8.80;;;5.50;;
47433;SDS011;33184;48.774;8.918;2022-12-07T04:42:17;8.37;;;5.53;;
47433;SDS011;33184;48.774;8.918;2022-12-07T04:47:37;8.27;;;5.13;;
47433;SDS011;33184;48.774;8.918;2022-12-07T04:52:58;5.73;;;3.93;;
47433;SDS011;33184;48.774;8.918;2022-12-07T04:58:18;6.00;;;3.70;;
47433;SDS011;33184;48.774;8.918;2022-12-07T05:03:39;4.70;;;3.50;;
47433;SDS011;33184;48.774;8.918;2022-12-07T05:08:59;4.67;;;3.23;;
47433;SDS011;33184;48.774;8.918;2022-12-07T05:14:20;3.77;;;2.77;;
47433;SDS011;33184;48.774;8.918;2022-12-07T05:19:41;4.53;;;2.90;;
47433;SDS011;33184;48.774;8.918;2022-12-07T05:25:01;4.23;;;3.03;;
47433;SDS011;33184;48.774;8.918;2022-12-07T05:30:23;6.57;;;4.00;;
47433;SDS011;33184;48.774;8.918;2022-12-07T05:35:44;6.13;;;3.77;;
47433;SDS011;33184;48.774;8.918;2022-12-07T05:41:06;6.07;;;3.90;;
47433;SDS011;33184;48.774;8.918;2022-12-07T05:46:27;7.43;;;4.07;;
47433;SDS011;33184;48.774;8.918;2022-12-07T05:51:47;6.13;;;4.07;;
47433;SDS011;33184;48.774;8.918;2022-12-07T05:57:08;5.23;;;3.87;;
47433;SDS011;33184;48.774;8.918;2022-12-07T06:02:28;4.93;;;3.30;;
47433;SDS011;33184;48.774;8.918;2022-12-07T06:07:49;8.90;;;4.40;;
47433;SDS011;33184;48.774;8.918;2022-12-07T06:13:09;5.83;;;3.77;;
47433;SDS011;33184;48.774;8.918;2022-12-07T06:18:30;6.67;;;4.53;;
47433;SDS011;33184;48.774;8.918;2022-12-07T06:23:50;9.07;;;5.60;;
47433;SDS011;33184;48.774;8.918;2022-12-07T06:29:11;8.07;;;4.90;;
47433;SDS011;33184;48.774;8.918;2022-12-07T06:34:33;5.53;;;3.97;;
47433;SDS011;33184;48.774;8.918;2022-12-07T06:39:53;6.40;;;4.13;;
47433;SDS011;33184;48.774;8.918;2022-12-07T06:45:14;5.53;;;3.60;;
47433;SDS011;33184;48.774;8.918;2022-12-07T06:50:34;4.90;;;3.33;;
47433;SDS011;33184;48.774;8.918;2022-12-07T06:55:55;8.13;;;3.90;;
47433;SDS011;33184;48.774;8.918;2022-12-07T07:01:16;4.20;;;2.50;;
47433;SDS011;33184;48.774;8.918;2022-12-07T07:06:37;6.77;;;3.10;;
47433;SDS011;33184;48.774;8.918;2022-12-07T07:11:58;10.60;;;4.03;;
47433;SDS011;33184;48.774;8.918;2022-12-07T07:17:18;5.17;;;3.37;;
47433;SDS011;33184;48.774;8.918;2022-12-07T07:22:39;57.93;;;22.70;;
47433;SDS011;33184;48.774;8.918;2022-12-07T07:28:00;7.77;;;4.60;;
47433;SDS011;33184;48.774;8.918;2022-12-07T07:33:20;7.90;;;4.33;;
47433;SDS011;33184;48.774;8.918;2022-12-07T07:38:41;7.40;;;4.17;;
47433;SDS011;33184;48.774;8.918;2022-12-07T07:44:01;7.33;;;4.23;;
47433;SDS011;33184;48.774;8.918;2022-12-07T07:49:22;5.63;;;4.37;;
47433;SDS011;33184;48.774;8.918;2022-12-07T07:54:43;8.20;;;4.33;;
47433;SDS011;33184;48.774;8.918;2022-12-07T08:00:03;7.67;;;4.20;;
47433;SDS011;33184;48.774;8.918;2022-12-07T08:05:32;9.13;;;5.00;;
47433;SDS011;33184;48.774;8.918;2022-12-07T08:10:53;9.23;;;4.77;;
47433;SDS011;33184;48.774;8.918;2022-12-07T08:16:13;8.40;;;4.47;;
47433;SDS011;33184;48.774;8.918;2022-12-07T08:21:35;6.90;;;4.70;;
47433;SDS011;33184;48.774;8.918;2022-12-07T08:26:55;10.43;;;4.63;;
47433;SDS011;33184;48.774;8.918;2022-12-07T08:32:16;5.53;;;3.50;;
47433;SDS011;33184;48.774;8.918;2022-12-07T08:37:36;7.27;;;3.50;;
47433;SDS011;33184;48.774;8.918;2022-12-07T08:42:57;5.37;;;3.90;;
47433;SDS011;33184;48.774;8.918;2022-12-07T08:48:17;4.07;;;2.80;;
47433;SDS011;33184;48.774;8.918;2022-12-07T08:53:42;3.00;;;2.10;;
47433;SDS011;33184;48.774;8.918;2022-12-07T08:59:04;3.63;;;2.13;;
47433;SDS011;33184;48.774;8.918;2022-12-07T09:04:25;3.17;;;2.13;;
47433;SDS011;33184;48.774;8.918;2022-12-07T09:09:46;5.37;;;2.13;;
47433;SDS011;33184;48.774;8.918;2022-12-07T09:15:07;3.77;;;2.37;;
47433;SDS011;33184;48.774;8.918;2022-12-07T09:20:28;2.50;;;2.30;;
47433;SDS011;33184;48.774;8.918;2022-12-07T09:25:48;2.53;;;1.77;;
47433;SDS011;33184;48.774;8.918;2022-12-07T09:31:09;2.47;;;1.80;;
47433;SDS011;33184;48.774;8.918;2022-12-07T09:36:29;3.50;;;1.53;;
47433;SDS011;33184;48.774;8.918;2022-12-07T09:41:50;4.93;;;2.67;;
47433;SDS011;33184;48.774;8.918;2022-12-07T09:47:11;2.90;;;1.97;;
47433;SDS011;33184;48.774;8.918;2022-12-07T09:52:31;5.00;;;2.73;;
47433;SDS011;33184;48.774;8.918;2022-12-07T09:57:52;6.93;;;1.90;;
47433;SDS011;33184;48.774;8.918;2022-12-07T10:03:14;2.83;;;2.17;;
47433;SDS011;33184;48.774;8.918;2022-12-07T10:08:34;4.00;;;2.53;;
47433;SDS011;33184;48.774;8.918;2022-12-07T10:13:55;2.77;;;1.73;;
47433;SDS011;33184;48.774;8.918;2022-12-07T10:19:32;2.37;;;1.83;;
47433;SDS011;33184;48.774;8.918;2022-12-07T10:24:53;2.97;;;1.80;;
47433;SDS011;33184;48.774;8.918;2022-12-07T10:30:14;3.77;;;1.90;;
47433;SDS011;33184;48.774;8.918;2022-12-07T10:35:35;4.70;;;1.20;;
47433;SDS011;33184;48.774;8.918;2022-12-07T10:41:04;2.10;;;1.67;;
47433;SDS011;33184;48.774;8.918;2022-12-07T10:58:09;1.97;;;1.20;;
47433;SDS011;33184;48.774;8.918;2022-12-07T11:03:47;3.63;;;1.27;;
47433;SDS011;33184;48.774;8.918;2022-12-07T11:09:36;2.30;;;1.00;;
47433;SDS011;33184;48.774;8.918;2022-12-07T11:15:11;2.17;;;1.40;;
47433;SDS011;33184;48.774;8.918;2022-12-07T11:37:39;2.00;;;1.63;;
47433;SDS011;33184;48.774;8.918;2022-12-07T11:48:30;1.83;;;1.23;;
47433;SDS011;33184;48.774;8.918;2022-12-07T11:53:56;1.80;;;1.37;;
47433;SDS011;33184;48.774;8.918;2022-12-07T11:59:23;3.87;;;1.60;;
47433;SDS011;33184;48.774;8.918;2022-12-07T12:04:54;1.57;;;1.37;;
47433;SDS011;33184;48.774;8.918;2022-12-07T12:10:42;1.73;;;1.50;;
47433;SDS011;33184;48.774;8.918;2022-12-07T12:22:10;3.50;;;2.07;;
47433;SDS011;33184;48.774;8.918;2022-12-07T12:27:37;2.77;;;2.23;;
47433;SDS011;33184;48.774;8.918;2022-12-07T12:33:12;2.77;;;2.10;;
47433;SDS011;33184;48.774;8.918;2022-12-07T12:49:36;4.07;;;1.97;;
47433;SDS011;33184;48.774;8.918;2022-12-07T12:54:59;4.00;;;2.50;;
47433;SDS011;33184;48.774;8.918;2022-12-07T13:00:31;4.80;;;2.97;;
47433;SDS011;33184;48.774;8.918;2022-12-07T13:06:38;4.23;;;2.77;;
47433;SDS011;33184;48.774;8.918;2022-12-07T13:11:40;4.67;;;2.93;;
47433;SDS011;33184;48.774;8.918;2022-12-07T13:17:03;5.87;;;3.00;;
47433;SDS011;33184;48.774;8.918;2022-12-07T13:27:54;4.13;;;3.03;;
47433;SDS011;33184;48.774;8.918;2022-12-07T13:33:17;5.33;;;2.70;;
47433;SDS011;33184;48.774;8.918;2022-12-07T13:38:39;4.47;;;3.60;;
47433;SDS011;33184;48.774;8.918;2022-12-07T13:44:17;4.87;;;3.10;;
47433;SDS011;33184;48.774;8.918;2022-12-07T13:49:44;4.47;;;3.43;;
47433;SDS011;33184;48.774;8.918;2022-12-07T13:55:14;7.25;;;3.35;;
47433;SDS011;33184;48.774;8.918;2022-12-07T14:00:37;3.07;;;2.33;;
47433;SDS011;33184;48.774;8.918;2022-12-07T14:06:14;8.20;;;3.53;;
47433;SDS011;33184;48.774;8.918;2022-12-07T14:11:40;8.93;;;2.67;;
47433;SDS011;33184;48.774;8.918;2022-12-07T14:17:08;7.23;;;4.10;;
47433;SDS011;33184;48.774;8.918;2022-12-07T14:22:44;7.90;;;5.60;;
47433;SDS011;33184;48.774;8.918;2022-12-07T14:28:36;5.90;;;3.40;;
47433;SDS011;33184;48.774;8.918;2022-12-07T14:34:00;7.33;;;3.50;;
47433;SDS011;33184;48.774;8.918;2022-12-07T14:39:20;8.30;;;3.37;;
47433;SDS011;33184;48.774;8.918;2022-12-07T14:44:41;4.53;;;2.90;;
47433;SDS011;33184;48.774;8.918;2022-12-07T14:50:01;6.17;;;3.10;;
47433;SDS011;33184;48.774;8.918;2022-12-07T14:55:26;11.57;;;8.37;;
47433;SDS011;33184;48.774;8.918;2022-12-07T15:00:48;4.70;;;2.67;;
47433;SDS011;33184;48.774;8.918;2022-12-07T15:06:10;5.87;;;3.90;;
47433;SDS011;33184;48.774;8.918;2022-12-07T15:11:34;9.53;;;5.47;;
47433;SDS011;33184;48.774;8.918;2022-12-07T15:16:55;11.00;;;6.37;;
47433;SDS011;33184;48.774;8.918;2022-12-07T15:22:15;7.87;;;5.03;;
47433;SDS011;33184;48.774;8.918;2022-12-07T15:27:36;9.60;;;5.83;;
47433;SDS011;33184;48.774;8.918;2022-12-07T15:32:58;11.80;;;5.77;;
47433;SDS011;33184;48.774;8.918;2022-12-07T15:38:18;8.77;;;6.00;;
47433;SDS011;33184;48.774;8.918;2022-12-07T15:43:39;10.17;;;5.53;;
47433;SDS011;33184;48.774;8.918;2022-12-07T15:49:18;8.10;;;5.27;;
47433;SDS011;33184;48.774;8.918;2022-12-07T15:54:39;8.20;;;5.10;;
47433;SDS011;33184;48.774;8.918;2022-12-07T16:00:00;9.30;;;5.10;;
47433;SDS011;33184;48.774;8.918;2022-12-07T16:05:21;9.83;;;5.37;;
47433;SDS011;33184;48.774;8.918;2022-12-07T16:10:41;8.97;;;5.10;;
47433;SDS011;33184;48.774;8.918;2022-12-07T16:16:03;10.23;;;5.93;;
47433;SDS011;33184;48.774;8.918;2022-12-07T16:21:25;13.80;;;7.97;;
47433;SDS011;33184;48.774;8.918;2022-12-07T16:26:46;16.23;;;9.03;;
47433;SDS011;33184;48.774;8.918;2022-12-07T16:32:06;9.63;;;6.47;;
47433;SDS011;33184;48.774;8.918;2022-12-07T16:37:27;10.03;;;6.87;;
47433;SDS011;33184;48.774;8.918;2022-12-07T16:42:47;8.90;;;5.73;;
47433;SDS011;33184;48.774;8.918;2022-12-07T16:48:08;11.90;;;5.53;;
47433;SDS011;33184;48.774;8.918;2022-12-07T16:53:28;11.73;;;6.87;;
47433;SDS011;33184;48.774;8.918;2022-12-07T16:58:49;12.13;;;6.67;;
47433;SDS011;33184;48.774;8.918;2022-12-07T17:04:09;14.57;;;7.87;;
47433;SDS011;33184;48.774;8.918;2022-12-07T17:09:30;11.53;;;7.80;;
47433;SDS011;33184;48.774;8.918;2022-12-07T17:14:51;11.53;;;8.27;;
47433;SDS011;33184;48.774;8.918;2022-12-07T17:20:30;11.37;;;8.97;;
47433;SDS011;33184;48.774;8.918;2022-12-07T17:25:51;10.73;;;7.60;;
47433;SDS011;33184;48.774;8.918;2022-12-07T17:31:12;19.43;;;10.93;;
47433;SDS011;33184;48.774;8.918;2022-12-07T17:36:34;15.60;;;11.23;;
47433;SDS011;33184;48.774;8.918;2022-12-07T17:41:55;14.70;;;10.37;;
47433;SDS011;33184;48.774;8.918;2022-12-07T17:47:34;18.07;;;11.37;;
47433;SDS011;33184;48.774;8.918;2022-12-07T17:52:58;19.10;;;10.50;;
47433;SDS011;33184;48.774;8.918;2022-12-07T17:58:31;18.60;;;10.97;;
47433;SDS011;33184;48.774;8.918;2022-12-07T18:03:51;14.17;;;10.27;;
47433;SDS011;33184;48.774;8.918;2022-12-07T18:09:12;17.33;;;10.97;;
47433;SDS011;33184;48.774;8.918;2022-12-07T18:14:32;11.57;;;7.93;;
47433;SDS011;33184;48.774;8.918;2022-12-07T18:19:53;12.10;;;8.37;;
47433;SDS011;33184;48.774;8.918;2022-12-07T18:25:14;16.27;;;10.40;;
47433;SDS011;33184;48.774;8.918;2022-12-07T18:30:34;24.40;;;13.73;;
47433;SDS011;33184;48.774;8.918;2022-12-07T18:35:55;20.77;;;14.03;;
47433;SDS011;33184;48.774;8.918;2022-12-07T18:41:18;14.57;;;9.77;;
47433;SDS011;33184;48.774;8.918;2022-12-07T18:46:39;19.50;;;9.67;;
47433;SDS011;33184;48.774;8.918;2022-12-07T18:52:01;16.67;;;9.13;;
47433;SDS011;33184;48.774;8.918;2022-12-07T18:57:22;18.83;;;13.33;;
47433;SDS011;33184;48.774;8.918;2022-12-07T19:02:42;21.50;;;11.73;;
47433;SDS011;33184;48.774;8.918;2022-12-07T19:08:03;18.63;;;12.30;;
47433;SDS011;33184;48.774;8.918;2022-12-07T19:13:24;12.77;;;9.20;;
47433;SDS011;33184;48.774;8.918;2022-12-07T19:18:44;19.30;;;12.77;;
47433;SDS011;33184;48.774;8.918;2022-12-07T19:24:05;22.70;;;14.37;;
47433;SDS011;33184;48.774;8.918;2022-12-07T19:29:27;25.33;;;16.03;;
47433;SDS011;33184;48.774;8.918;2022-12-07T19:34:50;23.37;;;14.40;;
47433;SDS011;33184;48.774;8.918;2022-12-07T19:40:10;16.70;;;10.70;;
47433;SDS011;33184;48.774;8.918;2022-12-07T19:45:32;18.50;;;10.93;;
47433;SDS011;33184;48.774;8.918;2022-12-07T19:50:53;13.23;;;7.57;;
47433;SDS011;33184;48.774;8.918;2022-12-07T19:56:14;10.80;;;7.50;;
47433;SDS011;33184;48.774;8.918;2022-12-07T20:01:36;12.67;;;8.57;;
47433;SDS011;33184;48.774;8.918;2022-12-07T20:06:57;21.33;;;12.33;;
47433;SDS011;33184;48.774;8.918;2022-12-07T20:12:19;24.97;;;14.90;;
47433;SDS011;33184;48.774;8.918;2022-12-07T20:17:58;16.07;;;10.47;;
47433;SDS011;33184;48.774;8.918;2022-12-07T20:23:18;15.40;;;9.97;;
47433;SDS011;33184;48.774;8.918;2022-12-07T20:28:39;20.27;;;13.70;;
47433;SDS011;33184;48.774;8.918;2022-12-07T20:34:04;16.63;;;10.83;;
47433;SDS011;33184;48.774;8.918;2022-12-07T20:39:25;11.30;;;9.03;;
47433;SDS011;33184;48.774;8.918;2022-12-07T20:44:46;14.93;;;10.33;;
47433;SDS011;33184;48.774;8.918;2022-12-07T20:50:06;17.37;;;10.27;;
47433;SDS011;33184;48.774;8.918;2022-12-07T20:55:27;16.57;;;11.03;;
47433;SDS011;33184;48.774;8.918;2022-12-07T21:00:48;20.73;;;12.43;;
47433;SDS011;33184;48.774;8.918;2022-12-07T21:06:15;22.20;;;12.17;;
47433;SDS011;33184;48.774;8.918;2022-12-07T21:11:37;11.03;;;7.33;;
47433;SDS011;33184;48.774;8.918;2022-12-07T21:16:58;10.70;;;6.63;;
47433;SDS011;33184;48.774;8.918;2022-12-07T21:22:19;8.40;;;6.20;;
47433;SDS011;33184;48.774;8.918;2022-12-07T21:27:39;9.23;;;6.63;;
47433;SDS011;33184;48.774;8.918;2022-12-07T21:33:00;13.33;;;7.23;;
47433;SDS011;33184;48.774;8.918;2022-12-07T21:38:20;12.17;;;7.50;;
47433;SDS011;33184;48.774;8.918;2022-12-07T21:43:41;11.63;;;8.50;;
47433;SDS011;33184;48.774;8.918;2022-12-07T21:49:07;13.37;;;9.50;;
47433;SDS011;33184;48.774;8.918;2022-12-07T21:54:31;13.97;;;8.53;;
47433;SDS011;33184;48.774;8.918;2022-12-07T21:59:51;13.37;;;9.27;;
47433;SDS011;33184;48.774;8.918;2022-12-07T22:05:12;18.20;;;10.47;;
47433;SDS011;33184;48.774;8.918;2022-12-07T22:10:32;16.73;;;11.20;;
47433;SDS011;33184;48.774;8.918;2022-12-07T22:15:53;16.07;;;10.07;;
47433;SDS011;33184;48.774;8.918;2022-12-07T22:21:13;12.83;;;8.07;;
47433;SDS011;33184;48.774;8.918;2022-12-07T22:26:34;12.27;;;8.27;;
47433;SDS011;33184;48.774;8.918;2022-12-07T22:31:54;11.70;;;7.47;;
47433;SDS011;33184;48.774;8.918;2022-12-07T22:37:15;12.43;;;7.80;;
47433;SDS011;33184;48.774;8.918;2022-12-07T22:42:35;10.27;;;5.60;;
47433;SDS011;33184;48.774;8.918;2022-12-07T22:47:56;12.70;;;7.03;;
47433;SDS011;33184;48.774;8.918;2022-12-07T22:53:17;13.53;;;7.40;;
47433;SDS011;33184;48.774;8.918;2022-12-07T22:58:41;15.70;;;7.90;;
47433;SDS011;33184;48.774;8.918;2022-12-07T23:04:02;13.90;;;8.17;;
47433;SDS011;33184;48.774;8.918;2022-12-07T23:09:22;14.07;;;7.90;;
47433;SDS011;33184;48.774;8.918;2022-12-07T23:14:43;12.27;;;7.70;;
47433;SDS011;33184;48.774;8.918;2022-12-07T23:20:04;12.60;;;7.97;;
47433;SDS011;33184;48.774;8.918;2022-12-07T23:25:25;12.33;;;7.73;;
47433;SDS011;33184;48.774;8.918;2022-12-07T23:30:45;12.17;;;7.07;;
47433;SDS011;33184;48.774;8.918;2022-12-07T23:36:10;15.03;;;7.73;;
47433;SDS011;33184;48.774;8.918;2022-12-07T23:41:32;13.97;;;7.67;;
47433;SDS011;33184;48.774;8.918;2022-12-07T23:46:53;9.83;;;6.23;;
47433;SDS011;33184;48.774;8.918;2022-12-07T23:52:13;10.47;;;6.40;;
47433;SDS011;33184;48.774;8.918;2022-12-07T23:57:34;9.97;;;6.30;;
